CYMX/YMX METAR and TAF weather

Enter ICAO airport designator
Station Type Date Time Source
CYMX METAR 2022/12/08 13:00 UTC NOAA

CYMX 081300Z 34005KT 25SM BKN033 01/M02 A3027 RMK SC6 SLP257


Station Type Date Time Source
CYMX Decoded METAR 2022/12/08 13:00 UTC NOAA

Montreal / Mirabel, Canada (CYMX) 45-41N 074-02W
Dec 08, 2022 - 08:00 AM EST / 2022.12.08 1300 UTC
Wind: from the NNW (340 degrees) at 6 MPH (5 KT):0
Visibility: 25 mile(s):0
Sky conditions: mostly cloudy
Temperature: 33 F (1 C)
Windchill: 26 F (-3 C):1
Dew Point: 28 F (-2 C)
Relative Humidity: 80%
Pressure (altimeter): 30.27 in. Hg (1025 hPa)
ob: CYMX 081300Z 34005KT 25SM BKN033 01/M02 A3027 RMK SC6 SLP257
cycle: 13

Station Type Date Time Source
CYMX TAF 2022/12/08 12:45 UTC NOAA

TAF CYMX 081140Z 0812/0912 30005KT P6SM SCT015 OVC030
TEMPO 0812/0818 BKN015 OVC030
FM081800 33007KT P6SM FEW020
FM090000 VRB03KT P6SM SKC
RMK NXT FCST BY 081800Z

Example: see airport list